sensor_id;sensor_type;location;lat;lon;timestamp;P1;durP1;ratioP1;P2;durP2;ratioP2
75096;SDS011;63684;47.964;11.186;2022-09-21T00:02:24;9.07;;;2.03;;
75096;SDS011;63684;47.964;11.186;2022-09-21T00:04:49;2.13;;;1.70;;
75096;SDS011;63684;47.964;11.186;2022-09-21T00:07:15;3.70;;;1.97;;
75096;SDS011;63684;47.964;11.186;2022-09-21T00:09:40;4.77;;;2.00;;
75096;SDS011;63684;47.964;11.186;2022-09-21T00:12:06;3.20;;;1.90;;
75096;SDS011;63684;47.964;11.186;2022-09-21T00:14:31;5.80;;;1.90;;
75096;SDS011;63684;47.964;11.186;2022-09-21T00:16:56;3.87;;;1.70;;
75096;SDS011;63684;47.964;11.186;2022-09-21T00:19:22;2.20;;;1.60;;
75096;SDS011;63684;47.964;11.186;2022-09-21T00:21:47;2.33;;;2.00;;
75096;SDS011;63684;47.964;11.186;2022-09-21T00:24:13;3.03;;;1.80;;
75096;SDS011;63684;47.964;11.186;2022-09-21T00:26:38;3.10;;;1.80;;
75096;SDS011;63684;47.964;11.186;2022-09-21T00:29:04;3.03;;;1.70;;
75096;SDS011;63684;47.964;11.186;2022-09-21T00:31:30;6.70;;;2.33;;
75096;SDS011;63684;47.964;11.186;2022-09-21T00:33:56;1.40;;;1.30;;
75096;SDS011;63684;47.964;11.186;2022-09-21T00:36:23;2.03;;;1.60;;
75096;SDS011;63684;47.964;11.186;2022-09-21T00:38:50;6.30;;;1.80;;
75096;SDS011;63684;47.964;11.186;2022-09-21T00:41:16;2.60;;;1.67;;
75096;SDS011;63684;47.964;11.186;2022-09-21T00:43:44;3.73;;;2.00;;
75096;SDS011;63684;47.964;11.186;2022-09-21T00:46:21;3.13;;;1.83;;
75096;SDS011;63684;47.964;11.186;2022-09-21T00:48:51;5.83;;;1.80;;
75096;SDS011;63684;47.964;11.186;2022-09-21T00:51:16;2.30;;;2.10;;
75096;SDS011;63684;47.964;11.186;2022-09-21T00:53:42;1.73;;;1.53;;
75096;SDS011;63684;47.964;11.186;2022-09-21T00:56:08;4.93;;;1.73;;
75096;SDS011;63684;47.964;11.186;2022-09-21T00:58:39;4.47;;;1.90;;
75096;SDS011;63684;47.964;11.186;2022-09-21T01:01:09;1.40;;;1.30;;
75096;SDS011;63684;47.964;11.186;2022-09-21T01:03:35;2.93;;;1.40;;
75096;SDS011;63684;47.964;11.186;2022-09-21T01:06:01;2.67;;;1.60;;
75096;SDS011;63684;47.964;11.186;2022-09-21T01:08:27;5.23;;;2.13;;
75096;SDS011;63684;47.964;11.186;2022-09-21T01:16:16;2.67;;;1.63;;
75096;SDS011;63684;47.964;11.186;2022-09-21T01:21:19;3.87;;;2.80;;
75096;SDS011;63684;47.964;11.186;2022-09-21T01:32:11;2.83;;;1.73;;
75096;SDS011;63684;47.964;11.186;2022-09-21T01:37:11;4.27;;;1.87;;
75096;SDS011;63684;47.964;11.186;2022-09-21T01:39:41;2.37;;;1.30;;
75096;SDS011;63684;47.964;11.186;2022-09-21T01:42:09;2.17;;;1.50;;
75096;SDS011;63684;47.964;11.186;2022-09-21T01:44:37;1.30;;;1.20;;
75096;SDS011;63684;47.964;11.186;2022-09-21T01:47:04;2.10;;;1.57;;
75096;SDS011;63684;47.964;11.186;2022-09-21T01:49:36;2.53;;;1.43;;
75096;SDS011;63684;47.964;11.186;2022-09-21T01:52:10;3.63;;;1.90;;
75096;SDS011;63684;47.964;11.186;2022-09-21T01:54:44;1.67;;;1.47;;
75096;SDS011;63684;47.964;11.186;2022-09-21T01:57:20;9.33;;;1.57;;
75096;SDS011;63684;47.964;11.186;2022-09-21T01:59:53;3.13;;;1.60;;
75096;SDS011;63684;47.964;11.186;2022-09-21T02:02:23;1.70;;;1.30;;
75096;SDS011;63684;47.964;11.186;2022-09-21T02:04:52;1.40;;;1.30;;
75096;SDS011;63684;47.964;11.186;2022-09-21T02:07:18;2.77;;;1.70;;
75096;SDS011;63684;47.964;11.186;2022-09-21T02:09:43;1.60;;;1.50;;
75096;SDS011;63684;47.964;11.186;2022-09-21T02:12:11;2.10;;;1.60;;
75096;SDS011;63684;47.964;11.186;2022-09-21T02:14:36;2.10;;;1.50;;
75096;SDS011;63684;47.964;11.186;2022-09-21T02:19:54;2.17;;;1.33;;
75096;SDS011;63684;47.964;11.186;2022-09-21T02:22:31;2.53;;;1.40;;
75096;SDS011;63684;47.964;11.186;2022-09-21T02:25:10;2.60;;;1.60;;
75096;SDS011;63684;47.964;11.186;2022-09-21T02:27:49;2.03;;;1.40;;
75096;SDS011;63684;47.964;11.186;2022-09-21T02:30:20;1.10;;;1.10;;
75096;SDS011;63684;47.964;11.186;2022-09-21T02:35:28;2.10;;;1.50;;
75096;SDS011;63684;47.964;11.186;2022-09-21T02:38:31;1.30;;;1.20;;
75096;SDS011;63684;47.964;11.186;2022-09-21T02:43:56;1.90;;;1.40;;
75096;SDS011;63684;47.964;11.186;2022-09-21T02:46:24;1.17;;;1.07;;
75096;SDS011;63684;47.964;11.186;2022-09-21T02:48:53;2.17;;;1.57;;
75096;SDS011;63684;47.964;11.186;2022-09-21T02:51:25;3.77;;;1.50;;
75096;SDS011;63684;47.964;11.186;2022-09-21T02:53:53;2.50;;;1.20;;
75096;SDS011;63684;47.964;11.186;2022-09-21T02:56:19;1.53;;;1.10;;
75096;SDS011;63684;47.964;11.186;2022-09-21T02:58:46;1.50;;;1.40;;
75096;SDS011;63684;47.964;11.186;2022-09-21T03:01:15;2.20;;;1.33;;
75096;SDS011;63684;47.964;11.186;2022-09-21T03:03:41;1.60;;;1.20;;
75096;SDS011;63684;47.964;11.186;2022-09-21T03:06:07;2.40;;;1.23;;
75096;SDS011;63684;47.964;11.186;2022-09-21T03:08:32;2.33;;;1.20;;
75096;SDS011;63684;47.964;11.186;2022-09-21T03:10:57;2.03;;;1.33;;
75096;SDS011;63684;47.964;11.186;2022-09-21T03:13:23;2.87;;;1.30;;
75096;SDS011;63684;47.964;11.186;2022-09-21T03:15:49;2.20;;;1.80;;
75096;SDS011;63684;47.964;11.186;2022-09-21T03:18:14;2.43;;;1.43;;
75096;SDS011;63684;47.964;11.186;2022-09-21T03:20:42;4.37;;;1.50;;
75096;SDS011;63684;47.964;11.186;2022-09-21T03:23:10;3.00;;;1.70;;
75096;SDS011;63684;47.964;11.186;2022-09-21T03:25:36;4.40;;;1.73;;
75096;SDS011;63684;47.964;11.186;2022-09-21T03:28:02;5.67;;;1.70;;
75096;SDS011;63684;47.964;11.186;2022-09-21T03:30:27;1.93;;;1.40;;
75096;SDS011;63684;47.964;11.186;2022-09-21T03:32:53;2.20;;;1.40;;
75096;SDS011;63684;47.964;11.186;2022-09-21T03:35:19;4.67;;;1.70;;
75096;SDS011;63684;47.964;11.186;2022-09-21T03:37:46;1.63;;;1.53;;
75096;SDS011;63684;47.964;11.186;2022-09-21T03:40:13;3.13;;;1.30;;
75096;SDS011;63684;47.964;11.186;2022-09-21T03:42:39;2.17;;;1.30;;
75096;SDS011;63684;47.964;11.186;2022-09-21T03:45:05;1.10;;;1.10;;
75096;SDS011;63684;47.964;11.186;2022-09-21T03:47:30;1.30;;;1.20;;
75096;SDS011;63684;47.964;11.186;2022-09-21T03:49:56;3.23;;;1.60;;
75096;SDS011;63684;47.964;11.186;2022-09-21T03:52:22;1.10;;;1.10;;
75096;SDS011;63684;47.964;11.186;2022-09-21T03:54:47;1.73;;;1.60;;
75096;SDS011;63684;47.964;11.186;2022-09-21T03:57:13;1.50;;;1.40;;
75096;SDS011;63684;47.964;11.186;2022-09-21T03:59:39;3.33;;;1.60;;
75096;SDS011;63684;47.964;11.186;2022-09-21T04:02:04;1.93;;;1.50;;
75096;SDS011;63684;47.964;11.186;2022-09-21T04:04:29;2.87;;;1.53;;
75096;SDS011;63684;47.964;11.186;2022-09-21T04:06:55;3.37;;;1.70;;
75096;SDS011;63684;47.964;11.186;2022-09-21T04:09:20;1.73;;;1.63;;
75096;SDS011;63684;47.964;11.186;2022-09-21T04:11:46;1.83;;;1.63;;
75096;SDS011;63684;47.964;11.186;2022-09-21T04:14:12;2.33;;;1.50;;
75096;SDS011;63684;47.964;11.186;2022-09-21T04:16:37;2.00;;;1.67;;
75096;SDS011;63684;47.964;11.186;2022-09-21T04:19:03;2.27;;;1.70;;
75096;SDS011;63684;47.964;11.186;2022-09-21T04:21:29;1.70;;;1.50;;
75096;SDS011;63684;47.964;11.186;2022-09-21T04:23:54;2.77;;;1.70;;
75096;SDS011;63684;47.964;11.186;2022-09-21T04:26:24;1.73;;;1.50;;
75096;SDS011;63684;47.964;11.186;2022-09-21T04:28:51;1.73;;;1.33;;
75096;SDS011;63684;47.964;11.186;2022-09-21T04:31:17;3.03;;;1.67;;
75096;SDS011;63684;47.964;11.186;2022-09-21T04:33:43;1.40;;;1.30;;
75096;SDS011;63684;47.964;11.186;2022-09-21T04:36:08;1.77;;;1.37;;
75096;SDS011;63684;47.964;11.186;2022-09-21T04:38:33;2.07;;;1.53;;
75096;SDS011;63684;47.964;11.186;2022-09-21T04:40:59;5.50;;;1.73;;
75096;SDS011;63684;47.964;11.186;2022-09-21T04:43:24;1.57;;;1.40;;
75096;SDS011;63684;47.964;11.186;2022-09-21T04:45:50;2.20;;;1.67;;
75096;SDS011;63684;47.964;11.186;2022-09-21T04:48:15;2.37;;;1.70;;
75096;SDS011;63684;47.964;11.186;2022-09-21T04:50:42;3.03;;;2.10;;
75096;SDS011;63684;47.964;11.186;2022-09-21T04:53:08;2.33;;;1.80;;
75096;SDS011;63684;47.964;11.186;2022-09-21T04:55:33;5.13;;;1.80;;
75096;SDS011;63684;47.964;11.186;2022-09-21T04:57:59;1.87;;;1.50;;
75096;SDS011;63684;47.964;11.186;2022-09-21T05:00:25;1.80;;;1.50;;
75096;SDS011;63684;47.964;11.186;2022-09-21T05:02:51;3.47;;;1.67;;
75096;SDS011;63684;47.964;11.186;2022-09-21T05:05:16;1.30;;;1.20;;
75096;SDS011;63684;47.964;11.186;2022-09-21T05:07:41;2.07;;;1.50;;
75096;SDS011;63684;47.964;11.186;2022-09-21T05:10:07;1.77;;;1.43;;
75096;SDS011;63684;47.964;11.186;2022-09-21T05:12:33;2.47;;;1.80;;
75096;SDS011;63684;47.964;11.186;2022-09-21T05:14:59;3.57;;;2.10;;
75096;SDS011;63684;47.964;11.186;2022-09-21T05:17:25;4.13;;;1.67;;
75096;SDS011;63684;47.964;11.186;2022-09-21T05:19:51;2.60;;;1.70;;
75096;SDS011;63684;47.964;11.186;2022-09-21T05:22:19;4.67;;;1.97;;
75096;SDS011;63684;47.964;11.186;2022-09-21T05:24:45;2.73;;;2.07;;
75096;SDS011;63684;47.964;11.186;2022-09-21T05:27:11;1.83;;;1.60;;
75096;SDS011;63684;47.964;11.186;2022-09-21T05:29:37;2.93;;;1.97;;
75096;SDS011;63684;47.964;11.186;2022-09-21T05:32:10;3.77;;;1.80;;
75096;SDS011;63684;47.964;11.186;2022-09-21T05:34:40;2.70;;;1.80;;
75096;SDS011;63684;47.964;11.186;2022-09-21T05:39:49;2.40;;;2.20;;
75096;SDS011;63684;47.964;11.186;2022-09-21T05:42:14;2.20;;;2.00;;
75096;SDS011;63684;47.964;11.186;2022-09-21T05:44:40;2.93;;;1.70;;
75096;SDS011;63684;47.964;11.186;2022-09-21T05:47:18;4.43;;;2.70;;
75096;SDS011;63684;47.964;11.186;2022-09-21T05:52:45;2.73;;;2.00;;
75096;SDS011;63684;47.964;11.186;2022-09-21T06:00:47;3.40;;;2.30;;
75096;SDS011;63684;47.964;11.186;2022-09-21T06:03:21;3.57;;;2.60;;
75096;SDS011;63684;47.964;11.186;2022-09-21T06:05:52;3.60;;;2.53;;
75096;SDS011;63684;47.964;11.186;2022-09-21T06:08:17;6.53;;;2.93;;
75096;SDS011;63684;47.964;11.186;2022-09-21T06:10:43;10.80;;;4.40;;
75096;SDS011;63684;47.964;11.186;2022-09-21T06:13:08;8.60;;;4.83;;
75096;SDS011;63684;47.964;11.186;2022-09-21T06:15:34;11.63;;;4.60;;
75096;SDS011;63684;47.964;11.186;2022-09-21T06:18:03;6.83;;;4.60;;
75096;SDS011;63684;47.964;11.186;2022-09-21T06:20:30;24.20;;;5.57;;
75096;SDS011;63684;47.964;11.186;2022-09-21T06:22:59;41.40;;;27.17;;
75096;SDS011;63684;47.964;11.186;2022-09-21T06:25:28;26.37;;;7.90;;
75096;SDS011;63684;47.964;11.186;2022-09-21T06:27:54;30.47;;;6.20;;
75096;SDS011;63684;47.964;11.186;2022-09-21T06:30:19;14.43;;;5.47;;
75096;SDS011;63684;47.964;11.186;2022-09-21T06:32:45;20.43;;;5.97;;
75096;SDS011;63684;47.964;11.186;2022-09-21T06:35:10;21.67;;;6.33;;
75096;SDS011;63684;47.964;11.186;2022-09-21T06:37:36;27.70;;;7.13;;
75096;SDS011;63684;47.964;11.186;2022-09-21T06:40:04;28.47;;;14.00;;
75096;SDS011;63684;47.964;11.186;2022-09-21T06:42:30;36.43;;;6.00;;
75096;SDS011;63684;47.964;11.186;2022-09-21T06:44:56;43.50;;;5.13;;
75096;SDS011;63684;47.964;11.186;2022-09-21T06:47:21;18.27;;;4.20;;
75096;SDS011;63684;47.964;11.186;2022-09-21T06:49:47;40.23;;;4.67;;
75096;SDS011;63684;47.964;11.186;2022-09-21T06:52:12;34.83;;;4.90;;
75096;SDS011;63684;47.964;11.186;2022-09-21T06:54:38;71.87;;;6.00;;
75096;SDS011;63684;47.964;11.186;2022-09-21T06:57:04;32.57;;;4.33;;
75096;SDS011;63684;47.964;11.186;2022-09-21T06:59:30;87.47;;;6.10;;
75096;SDS011;63684;47.964;11.186;2022-09-21T07:01:55;41.33;;;5.40;;
75096;SDS011;63684;47.964;11.186;2022-09-21T07:04:22;41.53;;;8.40;;
75096;SDS011;63684;47.964;11.186;2022-09-21T07:06:53;9.47;;;4.77;;
75096;SDS011;63684;47.964;11.186;2022-09-21T07:09:18;21.10;;;4.60;;
75096;SDS011;63684;47.964;11.186;2022-09-21T07:11:44;11.03;;;3.70;;
75096;SDS011;63684;47.964;11.186;2022-09-21T07:14:10;22.13;;;4.37;;
75096;SDS011;63684;47.964;11.186;2022-09-21T07:16:36;6.57;;;3.30;;
75096;SDS011;63684;47.964;11.186;2022-09-21T07:19:02;5.07;;;3.17;;
75096;SDS011;63684;47.964;11.186;2022-09-21T07:21:29;3.37;;;2.33;;
75096;SDS011;63684;47.964;11.186;2022-09-21T07:23:57;2.73;;;2.53;;
75096;SDS011;63684;47.964;11.186;2022-09-21T07:26:23;3.27;;;2.97;;
75096;SDS011;63684;47.964;11.186;2022-09-21T07:28:48;3.53;;;2.67;;
75096;SDS011;63684;47.964;11.186;2022-09-21T07:31:14;3.20;;;2.40;;
75096;SDS011;63684;47.964;11.186;2022-09-21T07:33:41;4.87;;;2.50;;
75096;SDS011;63684;47.964;11.186;2022-09-21T07:36:08;6.07;;;2.80;;
75096;SDS011;63684;47.964;11.186;2022-09-21T07:38:41;2.47;;;2.27;;
75096;SDS011;63684;47.964;11.186;2022-09-21T07:41:07;2.77;;;2.37;;
75096;SDS011;63684;47.964;11.186;2022-09-21T07:43:36;5.47;;;2.30;;
75096;SDS011;63684;47.964;11.186;2022-09-21T07:46:04;3.23;;;2.20;;
75096;SDS011;63684;47.964;11.186;2022-09-21T07:48:34;2.63;;;1.97;;
75096;SDS011;63684;47.964;11.186;2022-09-21T07:51:07;6.07;;;2.60;;
75096;SDS011;63684;47.964;11.186;2022-09-21T07:53:35;3.73;;;2.40;;
75096;SDS011;63684;47.964;11.186;2022-09-21T07:56:02;4.87;;;2.30;;
75096;SDS011;63684;47.964;11.186;2022-09-21T07:58:29;4.03;;;2.33;;
75096;SDS011;63684;47.964;11.186;2022-09-21T08:01:14;4.43;;;2.50;;
75096;SDS011;63684;47.964;11.186;2022-09-21T08:03:39;2.77;;;1.80;;
75096;SDS011;63684;47.964;11.186;2022-09-21T08:06:05;4.93;;;2.17;;
75096;SDS011;63684;47.964;11.186;2022-09-21T08:08:31;4.13;;;2.17;;
75096;SDS011;63684;47.964;11.186;2022-09-21T08:11:01;4.37;;;2.03;;
75096;SDS011;63684;47.964;11.186;2022-09-21T08:13:27;3.00;;;2.07;;
75096;SDS011;63684;47.964;11.186;2022-09-21T08:16:00;2.87;;;2.00;;
75096;SDS011;63684;47.964;11.186;2022-09-21T08:18:26;3.60;;;2.00;;
75096;SDS011;63684;47.964;11.186;2022-09-21T08:20:53;4.07;;;2.10;;
75096;SDS011;63684;47.964;11.186;2022-09-21T08:23:19;3.67;;;1.80;;
75096;SDS011;63684;47.964;11.186;2022-09-21T08:25:45;5.73;;;2.07;;
75096;SDS011;63684;47.964;11.186;2022-09-21T08:28:10;6.67;;;2.30;;
75096;SDS011;63684;47.964;11.186;2022-09-21T08:30:36;2.63;;;1.90;;
75096;SDS011;63684;47.964;11.186;2022-09-21T08:33:01;5.13;;;2.07;;
75096;SDS011;63684;47.964;11.186;2022-09-21T08:35:27;2.53;;;1.73;;
75096;SDS011;63684;47.964;11.186;2022-09-21T08:37:53;4.30;;;2.10;;
75096;SDS011;63684;47.964;11.186;2022-09-21T08:40:19;4.33;;;2.00;;
75096;SDS011;63684;47.964;11.186;2022-09-21T08:42:51;3.70;;;1.83;;
75096;SDS011;63684;47.964;11.186;2022-09-21T08:45:20;5.00;;;1.57;;
75096;SDS011;63684;47.964;11.186;2022-09-21T08:47:48;2.87;;;1.43;;
75096;SDS011;63684;47.964;11.186;2022-09-21T08:52:46;3.23;;;1.80;;
75096;SDS011;63684;47.964;11.186;2022-09-21T08:55:16;2.03;;;1.13;;
75096;SDS011;63684;47.964;11.186;2022-09-21T08:57:43;4.03;;;1.43;;
75096;SDS011;63684;47.964;11.186;2022-09-21T09:00:13;3.03;;;1.20;;
75096;SDS011;63684;47.964;11.186;2022-09-21T09:11:12;3.57;;;1.23;;
75096;SDS011;63684;47.964;11.186;2022-09-21T09:17:01;2.40;;;1.20;;
75096;SDS011;63684;47.964;11.186;2022-09-21T09:19:42;4.67;;;1.07;;
75096;SDS011;63684;47.964;11.186;2022-09-21T09:22:12;4.47;;;1.47;;
75096;SDS011;63684;47.964;11.186;2022-09-21T09:24:42;2.10;;;1.13;;
75096;SDS011;63684;47.964;11.186;2022-09-21T09:29:58;2.43;;;1.07;;
75096;SDS011;63684;47.964;11.186;2022-09-21T09:32:45;1.87;;;1.03;;
75096;SDS011;63684;47.964;11.186;2022-09-21T09:38:18;4.50;;;1.10;;
75096;SDS011;63684;47.964;11.186;2022-09-21T09:43:20;3.30;;;0.90;;
75096;SDS011;63684;47.964;11.186;2022-09-21T09:51:21;3.07;;;0.67;;
75096;SDS011;63684;47.964;11.186;2022-09-21T09:53:47;3.17;;;1.07;;
75096;SDS011;63684;47.964;11.186;2022-09-21T09:56:14;1.97;;;0.90;;
75096;SDS011;63684;47.964;11.186;2022-09-21T09:58:43;1.17;;;0.60;;
75096;SDS011;63684;47.964;11.186;2022-09-21T10:04:08;1.17;;;0.70;;
75096;SDS011;63684;47.964;11.186;2022-09-21T10:06:34;5.13;;;0.90;;
75096;SDS011;63684;47.964;11.186;2022-09-21T10:09:05;2.30;;;0.90;;
75096;SDS011;63684;47.964;11.186;2022-09-21T10:14:47;0.47;;;0.40;;
75096;SDS011;63684;47.964;11.186;2022-09-21T10:17:16;1.33;;;0.80;;
75096;SDS011;63684;47.964;11.186;2022-09-21T10:19:42;4.83;;;0.73;;
75096;SDS011;63684;47.964;11.186;2022-09-21T10:22:14;2.33;;;0.70;;
75096;SDS011;63684;47.964;11.186;2022-09-21T10:24:50;1.80;;;0.60;;
75096;SDS011;63684;47.964;11.186;2022-09-21T10:27:20;0.97;;;0.60;;
75096;SDS011;63684;47.964;11.186;2022-09-21T10:29:59;0.83;;;0.57;;
75096;SDS011;63684;47.964;11.186;2022-09-21T10:32:28;2.50;;;0.70;;
75096;SDS011;63684;47.964;11.186;2022-09-21T10:37:32;2.67;;;0.77;;
75096;SDS011;63684;47.964;11.186;2022-09-21T10:39:59;2.60;;;0.90;;
75096;SDS011;63684;47.964;11.186;2022-09-21T10:42:25;1.80;;;0.70;;
75096;SDS011;63684;47.964;11.186;2022-09-21T10:50:37;1.33;;;0.70;;
75096;SDS011;63684;47.964;11.186;2022-09-21T10:58:27;0.60;;;0.47;;
75096;SDS011;63684;47.964;11.186;2022-09-21T11:00:54;1.63;;;0.40;;
75096;SDS011;63684;47.964;11.186;2022-09-21T11:06:00;1.97;;;0.57;;
75096;SDS011;63684;47.964;11.186;2022-09-21T11:08:37;2.53;;;0.60;;
75096;SDS011;63684;47.964;11.186;2022-09-21T11:17:14;1.37;;;0.53;;
75096;SDS011;63684;47.964;11.186;2022-09-21T11:22:59;0.60;;;0.40;;
75096;SDS011;63684;47.964;11.186;2022-09-21T11:25:30;0.50;;;0.40;;
75096;SDS011;63684;47.964;11.186;2022-09-21T11:34:10;0.60;;;0.60;;
75096;SDS011;63684;47.964;11.186;2022-09-21T11:45:37;3.37;;;0.73;;
75096;SDS011;63684;47.964;11.186;2022-09-21T11:54:06;1.40;;;0.67;;
75096;SDS011;63684;47.964;11.186;2022-09-21T12:01:56;1.30;;;0.70;;
75096;SDS011;63684;47.964;11.186;2022-09-21T12:05:08;1.50;;;0.80;;
75096;SDS011;63684;47.964;11.186;2022-09-21T12:13:29;1.97;;;0.60;;
75096;SDS011;63684;47.964;11.186;2022-09-21T12:16:37;1.33;;;0.70;;
75096;SDS011;63684;47.964;11.186;2022-09-21T12:21:44;1.20;;;0.60;;
75096;SDS011;63684;47.964;11.186;2022-09-21T12:26:47;1.03;;;0.63;;
75096;SDS011;63684;47.964;11.186;2022-09-21T12:29:20;3.50;;;1.03;;
75096;SDS011;63684;47.964;11.186;2022-09-21T12:31:54;3.47;;;0.70;;
75096;SDS011;63684;47.964;11.186;2022-09-21T12:34:23;1.80;;;0.40;;
75096;SDS011;63684;47.964;11.186;2022-09-21T12:39:33;0.80;;;0.53;;
75096;SDS011;63684;47.964;11.186;2022-09-21T12:47:23;1.47;;;0.87;;
75096;SDS011;63684;47.964;11.186;2022-09-21T12:49:54;1.67;;;0.87;;
75096;SDS011;63684;47.964;11.186;2022-09-21T12:52:24;2.43;;;1.00;;
75096;SDS011;63684;47.964;11.186;2022-09-21T12:54:53;4.67;;;0.70;;
75096;SDS011;63684;47.964;11.186;2022-09-21T12:59:59;2.07;;;0.70;;
75096;SDS011;63684;47.964;11.186;2022-09-21T13:02:41;1.37;;;0.60;;
75096;SDS011;63684;47.964;11.186;2022-09-21T13:12:53;0.50;;;0.50;;
75096;SDS011;63684;47.964;11.186;2022-09-21T13:15:30;2.30;;;0.60;;
75096;SDS011;63684;47.964;11.186;2022-09-21T13:18:00;1.27;;;0.60;;
75096;SDS011;63684;47.964;11.186;2022-09-21T13:20:37;2.10;;;0.70;;
75096;SDS011;63684;47.964;11.186;2022-09-21T13:23:03;2.00;;;0.80;;
75096;SDS011;63684;47.964;11.186;2022-09-21T13:25:30;1.43;;;0.50;;
75096;SDS011;63684;47.964;11.186;2022-09-21T13:30:41;1.20;;;0.60;;
75096;SDS011;63684;47.964;11.186;2022-09-21T13:49:04;1.70;;;0.70;;
75096;SDS011;63684;47.964;11.186;2022-09-21T13:54:25;3.03;;;0.60;;
75096;SDS011;63684;47.964;11.186;2022-09-21T13:56:59;1.77;;;0.70;;
75096;SDS011;63684;47.964;11.186;2022-09-21T13:59:43;1.77;;;0.70;;
75096;SDS011;63684;47.964;11.186;2022-09-21T14:04:51;0.87;;;0.60;;
75096;SDS011;63684;47.964;11.186;2022-09-21T14:07:17;0.40;;;0.40;;
75096;SDS011;63684;47.964;11.186;2022-09-21T14:09:51;0.50;;;0.40;;
75096;SDS011;63684;47.964;11.186;2022-09-21T14:12:20;1.03;;;0.60;;
75096;SDS011;63684;47.964;11.186;2022-09-21T14:17:40;1.97;;;0.70;;
75096;SDS011;63684;47.964;11.186;2022-09-21T14:28:42;0.70;;;0.70;;
75096;SDS011;63684;47.964;11.186;2022-09-21T14:31:21;1.23;;;0.50;;
75096;SDS011;63684;47.964;11.186;2022-09-21T14:33:51;1.10;;;0.60;;
75096;SDS011;63684;47.964;11.186;2022-09-21T14:36:21;4.43;;;0.80;;
75096;SDS011;63684;47.964;11.186;2022-09-21T14:38:51;1.10;;;0.60;;
75096;SDS011;63684;47.964;11.186;2022-09-21T14:41:18;0.53;;;0.47;;
75096;SDS011;63684;47.964;11.186;2022-09-21T14:43:48;1.03;;;0.50;;
75096;SDS011;63684;47.964;11.186;2022-09-21T15:01:19;1.03;;;0.60;;
75096;SDS011;63684;47.964;11.186;2022-09-21T15:09:55;3.30;;;0.70;;
75096;SDS011;63684;47.964;11.186;2022-09-21T15:12:58;0.67;;;0.40;;
75096;SDS011;63684;47.964;11.186;2022-09-21T15:18:11;0.63;;;0.47;;
75096;SDS011;63684;47.964;11.186;2022-09-21T15:20:41;2.93;;;0.40;;
75096;SDS011;63684;47.964;11.186;2022-09-21T15:23:15;1.47;;;0.80;;
75096;SDS011;63684;47.964;11.186;2022-09-21T15:25:42;1.23;;;0.47;;
75096;SDS011;63684;47.964;11.186;2022-09-21T15:28:24;2.03;;;0.70;;
75096;SDS011;63684;47.964;11.186;2022-09-21T15:30:50;1.03;;;0.60;;
75096;SDS011;63684;47.964;11.186;2022-09-21T15:33:21;1.90;;;0.50;;
75096;SDS011;63684;47.964;11.186;2022-09-21T15:35:46;1.20;;;0.60;;
75096;SDS011;63684;47.964;11.186;2022-09-21T15:38:25;10.33;;;0.70;;
75096;SDS011;63684;47.964;11.186;2022-09-21T15:40:52;4.57;;;0.90;;
75096;SDS011;63684;47.964;11.186;2022-09-21T15:43:18;1.10;;;0.73;;
75096;SDS011;63684;47.964;11.186;2022-09-21T15:48:38;0.83;;;0.50;;
75096;SDS011;63684;47.964;11.186;2022-09-21T15:53:51;0.87;;;0.60;;
75096;SDS011;63684;47.964;11.186;2022-09-21T15:56:20;1.03;;;0.70;;
75096;SDS011;63684;47.964;11.186;2022-09-21T15:58:47;0.93;;;0.70;;
75096;SDS011;63684;47.964;11.186;2022-09-21T16:01:18;1.70;;;0.70;;
75096;SDS011;63684;47.964;11.186;2022-09-21T16:03:45;3.73;;;0.60;;
75096;SDS011;63684;47.964;11.186;2022-09-21T16:06:25;0.90;;;0.50;;
75096;SDS011;63684;47.964;11.186;2022-09-21T16:08:51;0.60;;;0.60;;
75096;SDS011;63684;47.964;11.186;2022-09-21T16:13:59;3.17;;;0.70;;
75096;SDS011;63684;47.964;11.186;2022-09-21T16:22:30;1.67;;;0.60;;
75096;SDS011;63684;47.964;11.186;2022-09-21T16:28:04;1.63;;;0.80;;
75096;SDS011;63684;47.964;11.186;2022-09-21T16:36:32;1.63;;;0.83;;
75096;SDS011;63684;47.964;11.186;2022-09-21T16:38:59;1.00;;;0.60;;
75096;SDS011;63684;47.964;11.186;2022-09-21T16:41:30;1.63;;;1.20;;
75096;SDS011;63684;47.964;11.186;2022-09-21T16:43:58;0.93;;;0.60;;
75096;SDS011;63684;47.964;11.186;2022-09-21T16:46:24;1.27;;;0.90;;
75096;SDS011;63684;47.964;11.186;2022-09-21T16:48:50;1.73;;;0.70;;
75096;SDS011;63684;47.964;11.186;2022-09-21T16:51:16;1.00;;;0.90;;
75096;SDS011;63684;47.964;11.186;2022-09-21T16:53:46;1.47;;;0.80;;
75096;SDS011;63684;47.964;11.186;2022-09-21T16:56:12;1.07;;;0.70;;
75096;SDS011;63684;47.964;11.186;2022-09-21T16:58:40;2.53;;;0.90;;
75096;SDS011;63684;47.964;11.186;2022-09-21T17:01:08;1.17;;;0.73;;
75096;SDS011;63684;47.964;11.186;2022-09-21T17:03:37;2.60;;;0.60;;
75096;SDS011;63684;47.964;11.186;2022-09-21T17:06:13;1.37;;;0.67;;
75096;SDS011;63684;47.964;11.186;2022-09-21T17:08:41;2.90;;;0.87;;
75096;SDS011;63684;47.964;11.186;2022-09-21T17:11:06;3.03;;;0.60;;
75096;SDS011;63684;47.964;11.186;2022-09-21T17:13:32;1.60;;;0.80;;
75096;SDS011;63684;47.964;11.186;2022-09-21T17:15:57;2.70;;;0.70;;
75096;SDS011;63684;47.964;11.186;2022-09-21T17:18:23;4.67;;;0.80;;
75096;SDS011;63684;47.964;11.186;2022-09-21T17:20:48;2.13;;;0.90;;
75096;SDS011;63684;47.964;11.186;2022-09-21T17:23:14;2.73;;;1.00;;
75096;SDS011;63684;47.964;11.186;2022-09-21T17:25:39;0.60;;;0.60;;
75096;SDS011;63684;47.964;11.186;2022-09-21T17:28:13;1.57;;;0.80;;
75096;SDS011;63684;47.964;11.186;2022-09-21T17:30:49;2.50;;;0.87;;
75096;SDS011;63684;47.964;11.186;2022-09-21T17:33:15;1.97;;;1.13;;
75096;SDS011;63684;47.964;11.186;2022-09-21T17:35:42;3.13;;;1.00;;
75096;SDS011;63684;47.964;11.186;2022-09-21T17:38:07;3.00;;;0.83;;
75096;SDS011;63684;47.964;11.186;2022-09-21T17:40:33;4.37;;;1.30;;
75096;SDS011;63684;47.964;11.186;2022-09-21T17:43:51;3.77;;;0.97;;
75096;SDS011;63684;47.964;11.186;2022-09-21T17:49:04;2.70;;;1.77;;
75096;SDS011;63684;47.964;11.186;2022-09-21T17:51:30;3.40;;;1.10;;
75096;SDS011;63684;47.964;11.186;2022-09-21T17:54:25;3.13;;;1.00;;
75096;SDS011;63684;47.964;11.186;2022-09-21T17:59:34;2.53;;;0.80;;
75096;SDS011;63684;47.964;11.186;2022-09-21T18:02:01;3.30;;;1.13;;
75096;SDS011;63684;47.964;11.186;2022-09-21T18:04:29;2.17;;;1.13;;
75096;SDS011;63684;47.964;11.186;2022-09-21T18:06:59;1.47;;;1.10;;
75096;SDS011;63684;47.964;11.186;2022-09-21T18:09:24;1.90;;;0.80;;
75096;SDS011;63684;47.964;11.186;2022-09-21T18:12:04;4.27;;;1.20;;
75096;SDS011;63684;47.964;11.186;2022-09-21T18:14:33;3.27;;;1.10;;
75096;SDS011;63684;47.964;11.186;2022-09-21T18:17:36;1.50;;;1.00;;
75096;SDS011;63684;47.964;11.186;2022-09-21T18:23:17;1.33;;;0.80;;
75096;SDS011;63684;47.964;11.186;2022-09-21T18:26:02;2.20;;;1.27;;
75096;SDS011;63684;47.964;11.186;2022-09-21T18:31:06;2.43;;;1.17;;
75096;SDS011;63684;47.964;11.186;2022-09-21T18:36:57;5.47;;;1.20;;
75096;SDS011;63684;47.964;11.186;2022-09-21T18:42:42;3.33;;;1.30;;
75096;SDS011;63684;47.964;11.186;2022-09-21T18:45:31;2.57;;;1.07;;
75096;SDS011;63684;47.964;11.186;2022-09-21T18:53:55;5.47;;;1.57;;
75096;SDS011;63684;47.964;11.186;2022-09-21T18:56:25;2.20;;;1.70;;
75096;SDS011;63684;47.964;11.186;2022-09-21T18:58:53;2.17;;;1.70;;
75096;SDS011;63684;47.964;11.186;2022-09-21T19:01:21;3.33;;;1.43;;
75096;SDS011;63684;47.964;11.186;2022-09-21T19:03:47;2.80;;;1.77;;
75096;SDS011;63684;47.964;11.186;2022-09-21T19:11:38;2.43;;;1.70;;